Washington, DC (20077)

3:17 AM EST on November 24, 2014 (GMT -0500)
Eckington Pl, NE | Change Station
CLOSE
Current Station
Personal Weather Station
Location: Washington, DC
Elevation: 90 ft
Nearby Weather Stations

Elev 90 ft 38.91 °N, 77.01 °W | Updated 3 minutes ago

Overcast
Overcast
63.5 °F
Feels Like 63.5 °F
N
5.0
Wind Variable Wind from South
Gusts 12.0 mph

Today
High -- | Low -- °F
--% Chance of Precip.
Yesterday
High -- | Low -- °F
Precip. -- in
7:00 AM 4:48 PM
Waxing Crescent, 4% visible
Pressure 29.67 in
Visibility 10.0 miles
Clouds Overcast 1100 ft
Dew Point 61 °F
Humidity 91%
Rainfall -999.00 in
Snow Depth Not available.
UV 0 out of 12
Pollen .10 out of 12
Air Quality Not available.
Flu Activity Not available.
METAR KDCA 240752Z 19013G23KT 10SM -RA OVC011 18/15 A2967 RMK AO2 PK WND 18030/0719 RAB23 SLP046 P0000 T01780150

More Conditions Fewer Conditions

Pressure 29.67 in
Visibility 10.0 miles
Clouds Overcast 1100 ft
Dew Point 61 °F
Humidity 91%
Rainfall -999.00 in
Snow Depth Not available.
UV 0 out of 12
Pollen .10 out of 12
Air Quality Not available.
Flu Activity Not available.
METAR KDCA 240752Z 19013G23KT 10SM -RA OVC011 18/15 A2967 RMK AO2 PK WND 18030/0719 RAB23 SLP046 P0000 T01780150

More Conditions Fewer Conditions

10-Day Weather Forecast

Almanac

Astronomy

Nov. 24, 2014 Rise Set
Actual Time
Civil Twilight
Nautical Twilight
Astronomical Twilight
Moon
Length of Visible Light
Length of Day
Tomorrow will be .
, % of the Moon is Illuminated

Today's Extremes

State Highs State Lows

Community

WunderPhotos

Upload Photos

1,773,295 photos uploaded!

WunderBlogs® & News

Nearby

Air Quality

  Air Quality AQ Index Pollutant
Not available.

Snow Depth

Station Depth Elevation

Earthquake Activity

City Distance Mag. Time & Date
Minimum magnitude displayed is 2.5.

Coastal Water Temperatures

Place Temperature

Nearby Weather Stations